sensor_id;sensor_type;location;lat;lon;timestamp;pressure;altitude;pressure_sealevel;temperature;humidity
61528;BME280;47395;42.032;-8.634;2023-04-09T00:00:41;101089.47;;;13.39;77.96
61528;BME280;47395;42.032;-8.634;2023-04-09T00:02:42;101091.44;;;13.36;77.73
61528;BME280;47395;42.032;-8.634;2023-04-09T00:04:43;101088.13;;;13.32;76.82
61528;BME280;47395;42.032;-8.634;2023-04-09T00:06:44;101084.94;;;13.25;76.49
61528;BME280;47395;42.032;-8.634;2023-04-09T00:08:45;101079.59;;;13.27;76.58
61528;BME280;47395;42.032;-8.634;2023-04-09T00:10:45;101077.84;;;13.26;76.28
61528;BME280;47395;42.032;-8.634;2023-04-09T00:12:46;101085.03;;;13.24;76.82
61528;BME280;47395;42.032;-8.634;2023-04-09T00:14:47;101084.34;;;13.20;77.35
61528;BME280;47395;42.032;-8.634;2023-04-09T00:16:48;101093.19;;;13.19;77.29
61528;BME280;47395;42.032;-8.634;2023-04-09T00:18:49;101091.50;;;13.18;77.74
61528;BME280;47395;42.032;-8.634;2023-04-09T00:20:51;101099.06;;;13.08;79.15
61528;BME280;47395;42.032;-8.634;2023-04-09T00:22:51;101107.78;;;13.10;79.24
61528;BME280;47395;42.032;-8.634;2023-04-09T00:24:52;101105.03;;;12.96;79.63
61528;BME280;47395;42.032;-8.634;2023-04-09T00:26:53;101104.78;;;13.00;79.81
61528;BME280;47395;42.032;-8.634;2023-04-09T00:28:54;101096.50;;;13.06;79.26
61528;BME280;47395;42.032;-8.634;2023-04-09T00:30:55;101098.03;;;13.11;79.06
61528;BME280;47395;42.032;-8.634;2023-04-09T00:32:57;101090.09;;;13.11;78.71
61528;BME280;47395;42.032;-8.634;2023-04-09T00:34:57;101096.44;;;13.08;78.51
61528;BME280;47395;42.032;-8.634;2023-04-09T00:36:59;101097.28;;;13.09;78.12
61528;BME280;47395;42.032;-8.634;2023-04-09T00:39:00;101095.66;;;13.06;78.17
61528;BME280;47395;42.032;-8.634;2023-04-09T00:41:01;101111.69;;;13.03;78.18
61528;BME280;47395;42.032;-8.634;2023-04-09T00:43:02;101115.50;;;12.97;78.33
61528;BME280;47395;42.032;-8.634;2023-04-09T00:45:04;101117.13;;;13.00;77.95
61528;BME280;47395;42.032;-8.634;2023-04-09T00:47:05;101119.25;;;12.93;78.28
61528;BME280;47395;42.032;-8.634;2023-04-09T00:49:06;101125.56;;;12.90;78.73
61528;BME280;47395;42.032;-8.634;2023-04-09T00:51:07;101121.47;;;12.85;78.80
61528;BME280;47395;42.032;-8.634;2023-04-09T00:53:09;101129.63;;;12.80;78.55
61528;BME280;47395;42.032;-8.634;2023-04-09T00:55:11;101125.34;;;12.77;78.35
61528;BME280;47395;42.032;-8.634;2023-04-09T00:57:13;101124.81;;;12.71;77.56
61528;BME280;47395;42.032;-8.634;2023-04-09T00:59:15;101126.66;;;12.69;77.18
61528;BME280;47395;42.032;-8.634;2023-04-09T01:01:16;101124.88;;;12.69;77.04
61528;BME280;47395;42.032;-8.634;2023-04-09T01:03:17;101126.84;;;12.65;76.61
61528;BME280;47395;42.032;-8.634;2023-04-09T01:05:18;101127.84;;;12.63;76.37
61528;BME280;47395;42.032;-8.634;2023-04-09T01:07:52;101134.78;;;12.65;75.70
61528;BME280;47395;42.032;-8.634;2023-04-09T01:12:36;101137.56;;;12.62;75.66
61528;BME280;47395;42.032;-8.634;2023-04-09T01:14:46;101151.72;;;12.61;75.29
61528;BME280;47395;42.032;-8.634;2023-04-09T01:17:04;101154.28;;;12.63;75.41
61528;BME280;47395;42.032;-8.634;2023-04-09T01:21:37;101159.78;;;12.58;75.62
61528;BME280;47395;42.032;-8.634;2023-04-09T01:23:56;101155.75;;;12.51;75.76
61528;BME280;47395;42.032;-8.634;2023-04-09T01:26:17;101161.97;;;12.50;76.19
61528;BME280;47395;42.032;-8.634;2023-04-09T01:28:32;101155.28;;;12.43;76.06
61528;BME280;47395;42.032;-8.634;2023-04-09T01:30:35;101158.53;;;12.30;76.21
61528;BME280;47395;42.032;-8.634;2023-04-09T01:32:37;101167.69;;;12.23;76.42
61528;BME280;47395;42.032;-8.634;2023-04-09T01:34:40;101165.34;;;12.17;77.13
61528;BME280;47395;42.032;-8.634;2023-04-09T01:36:44;101163.41;;;12.20;77.37
61528;BME280;47395;42.032;-8.634;2023-04-09T01:38:47;101155.94;;;12.11;77.44
61528;BME280;47395;42.032;-8.634;2023-04-09T01:40:51;101149.03;;;12.08;77.62
61528;BME280;47395;42.032;-8.634;2023-04-09T01:42:53;101144.91;;;12.01;77.95
61528;BME280;47395;42.032;-8.634;2023-04-09T01:44:55;101144.09;;;12.00;78.22
61528;BME280;47395;42.032;-8.634;2023-04-09T01:46:57;101153.78;;;12.00;78.62
61528;BME280;47395;42.032;-8.634;2023-04-09T01:48:59;101153.91;;;11.97;78.85
61528;BME280;47395;42.032;-8.634;2023-04-09T01:51:01;101140.97;;;11.92;78.77
61528;BME280;47395;42.032;-8.634;2023-04-09T01:53:02;101144.03;;;11.83;78.74
61528;BME280;47395;42.032;-8.634;2023-04-09T01:55:03;101144.16;;;11.80;78.62
61528;BME280;47395;42.032;-8.634;2023-04-09T01:57:05;101150.88;;;11.87;78.36
61528;BME280;47395;42.032;-8.634;2023-04-09T01:59:05;101146.31;;;11.91;77.96
61528;BME280;47395;42.032;-8.634;2023-04-09T02:01:13;101153.44;;;11.88;77.74
61528;BME280;47395;42.032;-8.634;2023-04-09T02:05:20;101141.72;;;11.75;77.33
61528;BME280;47395;42.032;-8.634;2023-04-09T02:07:55;101144.03;;;11.64;77.72
61528;BME280;47395;42.032;-8.634;2023-04-09T02:09:56;101154.88;;;11.57;77.70
61528;BME280;47395;42.032;-8.634;2023-04-09T02:12:02;101164.28;;;11.63;77.89
61528;BME280;47395;42.032;-8.634;2023-04-09T02:14:06;101164.09;;;11.68;77.60
61528;BME280;47395;42.032;-8.634;2023-04-09T02:16:12;101162.09;;;11.73;76.77
61528;BME280;47395;42.032;-8.634;2023-04-09T02:18:25;101162.84;;;11.75;76.75
61528;BME280;47395;42.032;-8.634;2023-04-09T02:20:27;101151.47;;;11.74;76.85
61528;BME280;47395;42.032;-8.634;2023-04-09T02:22:28;101149.66;;;11.75;76.58
61528;BME280;47395;42.032;-8.634;2023-04-09T02:24:29;101141.91;;;11.72;76.75
61528;BME280;47395;42.032;-8.634;2023-04-09T02:26:30;101146.38;;;11.70;76.83
61528;BME280;47395;42.032;-8.634;2023-04-09T02:28:32;101144.75;;;11.67;77.12
61528;BME280;47395;42.032;-8.634;2023-04-09T02:30:33;101145.88;;;11.61;77.60
61528;BME280;47395;42.032;-8.634;2023-04-09T02:32:34;101154.03;;;11.57;77.97
61528;BME280;47395;42.032;-8.634;2023-04-09T02:34:35;101164.66;;;11.55;77.96
61528;BME280;47395;42.032;-8.634;2023-04-09T02:36:36;101168.22;;;11.54;77.95
61528;BME280;47395;42.032;-8.634;2023-04-09T02:38:39;101167.34;;;11.54;77.99
61528;BME280;47395;42.032;-8.634;2023-04-09T02:40:41;101177.47;;;11.63;77.95
61528;BME280;47395;42.032;-8.634;2023-04-09T02:42:42;101182.50;;;11.69;77.72
61528;BME280;47395;42.032;-8.634;2023-04-09T02:44:43;101189.13;;;11.78;76.96
61528;BME280;47395;42.032;-8.634;2023-04-09T02:46:46;101186.09;;;11.86;76.54
61528;BME280;47395;42.032;-8.634;2023-04-09T02:48:48;101194.41;;;11.97;76.48
61528;BME280;47395;42.032;-8.634;2023-04-09T02:50:49;101190.63;;;12.03;76.09
61528;BME280;47395;42.032;-8.634;2023-04-09T02:52:50;101186.47;;;11.97;76.05
61528;BME280;47395;42.032;-8.634;2023-04-09T02:54:51;101192.28;;;12.06;75.74
61528;BME280;47395;42.032;-8.634;2023-04-09T02:56:52;101188.56;;;12.10;75.73
61528;BME280;47395;42.032;-8.634;2023-04-09T02:58:53;101193.69;;;12.13;75.58
61528;BME280;47395;42.032;-8.634;2023-04-09T03:00:55;101197.13;;;12.15;75.82
61528;BME280;47395;42.032;-8.634;2023-04-09T03:02:56;101198.13;;;12.12;75.81
61528;BME280;47395;42.032;-8.634;2023-04-09T03:04:57;101194.16;;;12.02;76.04
61528;BME280;47395;42.032;-8.634;2023-04-09T03:06:58;101185.84;;;11.92;76.76
61528;BME280;47395;42.032;-8.634;2023-04-09T03:08:59;101188.75;;;11.86;76.91
61528;BME280;47395;42.032;-8.634;2023-04-09T03:11:00;101201.13;;;11.85;77.05
61528;BME280;47395;42.032;-8.634;2023-04-09T03:13:00;101200.19;;;11.86;76.77
61528;BME280;47395;42.032;-8.634;2023-04-09T03:15:01;101203.53;;;11.90;76.33
61528;BME280;47395;42.032;-8.634;2023-04-09T03:17:04;101200.81;;;11.92;76.32
61528;BME280;47395;42.032;-8.634;2023-04-09T03:19:04;101204.16;;;11.95;76.45
61528;BME280;47395;42.032;-8.634;2023-04-09T03:21:07;101198.03;;;11.95;76.50
61528;BME280;47395;42.032;-8.634;2023-04-09T03:23:11;101204.97;;;11.97;75.92
61528;BME280;47395;42.032;-8.634;2023-04-09T03:25:17;101210.16;;;11.99;76.06
61528;BME280;47395;42.032;-8.634;2023-04-09T03:27:20;101211.81;;;12.01;75.87
61528;BME280;47395;42.032;-8.634;2023-04-09T03:29:25;101211.75;;;12.03;76.04
61528;BME280;47395;42.032;-8.634;2023-04-09T03:31:26;101216.81;;;12.08;76.42
61528;BME280;47395;42.032;-8.634;2023-04-09T03:33:27;101216.75;;;12.09;76.49
61528;BME280;47395;42.032;-8.634;2023-04-09T03:35:30;101218.38;;;12.12;76.62
61528;BME280;47395;42.032;-8.634;2023-04-09T03:37:33;101218.69;;;12.06;76.77
61528;BME280;47395;42.032;-8.634;2023-04-09T03:39:35;101224.81;;;12.06;76.87
61528;BME280;47395;42.032;-8.634;2023-04-09T03:41:36;101216.38;;;11.98;76.77
61528;BME280;47395;42.032;-8.634;2023-04-09T03:43:40;101225.06;;;12.00;77.01
61528;BME280;47395;42.032;-8.634;2023-04-09T03:45:42;101220.66;;;12.00;76.97
61528;BME280;47395;42.032;-8.634;2023-04-09T03:47:52;101225.94;;;12.00;76.52
61528;BME280;47395;42.032;-8.634;2023-04-09T03:49:57;101229.59;;;11.98;76.72
61528;BME280;47395;42.032;-8.634;2023-04-09T03:52:01;101221.16;;;11.90;76.81
61528;BME280;47395;42.032;-8.634;2023-04-09T03:54:10;101231.63;;;11.91;77.23
61528;BME280;47395;42.032;-8.634;2023-04-09T03:56:12;101238.78;;;11.89;77.16
61528;BME280;47395;42.032;-8.634;2023-04-09T03:58:13;101237.91;;;11.88;77.00
61528;BME280;47395;42.032;-8.634;2023-04-09T04:00:14;101237.91;;;11.88;77.07
61528;BME280;47395;42.032;-8.634;2023-04-09T04:04:47;101221.66;;;11.79;77.13
61528;BME280;47395;42.032;-8.634;2023-04-09T04:07:04;101237.91;;;11.88;77.17
61528;BME280;47395;42.032;-8.634;2023-04-09T04:09:31;101207.88;;;11.72;77.01
61528;BME280;47395;42.032;-8.634;2023-04-09T04:11:37;101215.00;;;11.70;77.02
61528;BME280;47395;42.032;-8.634;2023-04-09T04:13:53;101197.66;;;11.64;76.81
61528;BME280;47395;42.032;-8.634;2023-04-09T04:15:58;101207.22;;;11.67;76.86
61528;BME280;47395;42.032;-8.634;2023-04-09T04:18:08;101210.78;;;11.66;76.89
61528;BME280;47395;42.032;-8.634;2023-04-09T04:20:18;101204.09;;;11.58;76.64
61528;BME280;47395;42.032;-8.634;2023-04-09T04:22:54;101209.56;;;11.54;76.68
61528;BME280;47395;42.032;-8.634;2023-04-09T04:24:59;101210.28;;;11.57;76.23
61528;BME280;47395;42.032;-8.634;2023-04-09T04:27:07;101224.91;;;11.65;76.39
61528;BME280;47395;42.032;-8.634;2023-04-09T04:29:21;101215.56;;;11.57;76.54
61528;BME280;47395;42.032;-8.634;2023-04-09T04:31:40;101224.91;;;11.65;76.65
61528;BME280;47395;42.032;-8.634;2023-04-09T04:33:56;101220.72;;;11.60;76.60
61528;BME280;47395;42.032;-8.634;2023-04-09T04:36:12;101197.66;;;11.45;76.57
61528;BME280;47395;42.032;-8.634;2023-04-09T04:38:20;101203.59;;;11.50;76.51
61528;BME280;47395;42.032;-8.634;2023-04-09T04:40:46;101199.22;;;11.49;76.70
61528;BME280;47395;42.032;-8.634;2023-04-09T04:42:56;101211.16;;;11.58;77.08
61528;BME280;47395;42.032;-8.634;2023-04-09T04:45:01;101191.66;;;11.41;77.06
61528;BME280;47395;42.032;-8.634;2023-04-09T04:47:15;101206.41;;;11.45;76.80
61528;BME280;47395;42.032;-8.634;2023-04-09T04:49:19;101210.97;;;11.42;76.80
61528;BME280;47395;42.032;-8.634;2023-04-09T04:51:23;101208.28;;;11.43;76.77
61528;BME280;47395;42.032;-8.634;2023-04-09T04:53:45;101188.72;;;11.28;76.29
61528;BME280;47395;42.032;-8.634;2023-04-09T04:55:48;101187.06;;;11.26;76.38
61528;BME280;47395;42.032;-8.634;2023-04-09T04:58:07;101200.19;;;11.27;76.32
61528;BME280;47395;42.032;-8.634;2023-04-09T05:00:39;101193.53;;;11.18;76.41
61528;BME280;47395;42.032;-8.634;2023-04-09T05:02:41;101197.09;;;11.17;76.68
61528;BME280;47395;42.032;-8.634;2023-04-09T05:05:26;101192.00;;;11.13;76.76
61528;BME280;47395;42.032;-8.634;2023-04-09T05:07:32;101222.00;;;11.31;76.90
61528;BME280;47395;42.032;-8.634;2023-04-09T05:09:33;101190.13;;;11.16;77.17
61528;BME280;47395;42.032;-8.634;2023-04-09T05:11:42;101201.31;;;11.21;76.67
61528;BME280;47395;42.032;-8.634;2023-04-09T05:13:54;101215.09;;;11.28;76.93
61528;BME280;47395;42.032;-8.634;2023-04-09T05:16:03;101216.09;;;11.26;76.91
61528;BME280;47395;42.032;-8.634;2023-04-09T05:18:11;101192.94;;;11.12;76.58
61528;BME280;47395;42.032;-8.634;2023-04-09T05:20:48;101219.50;;;11.28;76.37
61528;BME280;47395;42.032;-8.634;2023-04-09T05:22:50;101227.47;;;11.26;76.45
61528;BME280;47395;42.032;-8.634;2023-04-09T05:25:07;101210.47;;;11.13;76.21
61528;BME280;47395;42.032;-8.634;2023-04-09T05:27:20;101210.34;;;11.16;75.93
61528;BME280;47395;42.032;-8.634;2023-04-09T05:31:40;101240.66;;;11.26;75.71
61528;BME280;47395;42.032;-8.634;2023-04-09T05:33:51;101240.81;;;11.23;75.43
61528;BME280;47395;42.032;-8.634;2023-04-09T05:36:03;101224.94;;;11.04;75.70
61528;BME280;47395;42.032;-8.634;2023-04-09T05:40:30;101252.47;;;11.17;75.78
61528;BME280;47395;42.032;-8.634;2023-04-09T05:42:37;101245.22;;;11.02;75.79
61528;BME280;47395;42.032;-8.634;2023-04-09T05:44:53;101238.44;;;10.96;76.06
61528;BME280;47395;42.032;-8.634;2023-04-09T05:47:00;101234.22;;;10.92;75.81
61528;BME280;47395;42.032;-8.634;2023-04-09T05:51:38;101241.25;;;10.91;76.04
61528;BME280;47395;42.032;-8.634;2023-04-09T05:53:45;101259.53;;;10.96;75.99
61528;BME280;47395;42.032;-8.634;2023-04-09T05:56:13;101239.13;;;10.79;75.93
61528;BME280;47395;42.032;-8.634;2023-04-09T05:58:33;101268.50;;;10.92;76.03
61528;BME280;47395;42.032;-8.634;2023-04-09T06:02:46;101245.44;;;10.75;75.98
61528;BME280;47395;42.032;-8.634;2023-04-09T06:05:06;101255.31;;;10.69;76.50
61528;BME280;47395;42.032;-8.634;2023-04-09T06:07:13;101269.66;;;10.84;75.95
61528;BME280;47395;42.032;-8.634;2023-04-09T06:09:21;101255.16;;;10.74;76.20
61528;BME280;47395;42.032;-8.634;2023-04-09T06:11:37;101272.34;;;10.83;76.18
61528;BME280;47395;42.032;-8.634;2023-04-09T06:13:41;101252.81;;;10.66;75.79
61528;BME280;47395;42.032;-8.634;2023-04-09T06:15:57;101269.78;;;10.81;75.83
61528;BME280;47395;42.032;-8.634;2023-04-09T06:18:15;101262.88;;;10.56;75.72
61528;BME280;47395;42.032;-8.634;2023-04-09T06:20:19;101289.09;;;10.82;76.04
61528;BME280;47395;42.032;-8.634;2023-04-09T06:22:34;101279.16;;;10.89;75.96
61528;BME280;47395;42.032;-8.634;2023-04-09T06:24:39;101251.81;;;10.91;75.87
61528;BME280;47395;42.032;-8.634;2023-04-09T06:26:45;101244.63;;;10.95;76.05
61528;BME280;47395;42.032;-8.634;2023-04-09T06:31:00;101268.09;;;11.22;75.02
61528;BME280;47395;42.032;-8.634;2023-04-09T06:33:12;101269.28;;;11.35;74.64
61528;BME280;47395;42.032;-8.634;2023-04-09T06:35:16;101270.66;;;11.44;74.31
61528;BME280;47395;42.032;-8.634;2023-04-09T06:37:17;101270.66;;;11.44;74.18
61528;BME280;47395;42.032;-8.634;2023-04-09T06:39:26;101262.00;;;11.61;73.76
61528;BME280;47395;42.032;-8.634;2023-04-09T06:44:10;101295.69;;;12.16;72.01
61528;BME280;47395;42.032;-8.634;2023-04-09T06:46:14;101299.06;;;12.38;71.44
61528;BME280;47395;42.032;-8.634;2023-04-09T06:48:23;101292.97;;;12.56;70.09
61528;BME280;47395;42.032;-8.634;2023-04-09T06:50:46;101288.19;;;12.82;68.48
61528;BME280;47395;42.032;-8.634;2023-04-09T06:53:00;101309.59;;;13.30;67.22
61528;BME280;47395;42.032;-8.634;2023-04-09T06:59:16;101310.47;;;14.32;63.89
61528;BME280;47395;42.032;-8.634;2023-04-09T07:01:22;101310.06;;;14.72;62.70
61528;BME280;47395;42.032;-8.634;2023-04-09T07:05:58;101306.97;;;15.56;60.03
61528;BME280;47395;42.032;-8.634;2023-04-09T07:08:10;101322.00;;;16.29;58.20
61528;BME280;47395;42.032;-8.634;2023-04-09T07:10:33;101325.09;;;16.78;56.14
61528;BME280;47395;42.032;-8.634;2023-04-09T07:12:42;101325.88;;;17.21;54.76
61528;BME280;47395;42.032;-8.634;2023-04-09T07:14:48;101309.81;;;17.35;53.91
61528;BME280;47395;42.032;-8.634;2023-04-09T07:16:52;101309.69;;;17.63;53.43
61528;BME280;47395;42.032;-8.634;2023-04-09T07:18:59;101320.13;;;18.18;51.80
61528;BME280;47395;42.032;-8.634;2023-04-09T07:21:12;101321.09;;;18.79;50.54
61528;BME280;47395;42.032;-8.634;2023-04-09T07:23:18;101336.72;;;19.33;49.21
61528;BME280;47395;42.032;-8.634;2023-04-09T07:27:35;101343.88;;;20.14;47.32
61528;BME280;47395;42.032;-8.634;2023-04-09T07:29:35;101327.81;;;20.14;46.85
61528;BME280;47395;42.032;-8.634;2023-04-09T07:31:56;101322.78;;;20.43;45.47
61528;BME280;47395;42.032;-8.634;2023-04-09T07:34:08;101329.09;;;20.98;44.73
61528;BME280;47395;42.032;-8.634;2023-04-09T07:36:15;101334.31;;;21.21;43.48
61528;BME280;47395;42.032;-8.634;2023-04-09T07:38:22;101343.03;;;21.87;42.48
61528;BME280;47395;42.032;-8.634;2023-04-09T07:40:29;101342.44;;;22.75;40.02
61528;BME280;47395;42.032;-8.634;2023-04-09T07:42:45;101357.03;;;23.22;39.68
61528;BME280;47395;42.032;-8.634;2023-04-09T07:44:56;101345.38;;;23.51;38.53
61528;BME280;47395;42.032;-8.634;2023-04-09T07:47:06;101373.41;;;24.34;38.45
61528;BME280;47395;42.032;-8.634;2023-04-09T07:49:37;101364.81;;;25.40;35.24
61528;BME280;47395;42.032;-8.634;2023-04-09T07:51:49;101361.50;;;25.99;33.77
61528;BME280;47395;42.032;-8.634;2023-04-09T07:54:27;101371.69;;;26.82;34.11
61528;BME280;47395;42.032;-8.634;2023-04-09T07:56:37;101369.56;;;27.19;33.32
61528;BME280;47395;42.032;-8.634;2023-04-09T07:59:33;101384.59;;;28.11;33.10
61528;BME280;47395;42.032;-8.634;2023-04-09T08:01:40;101399.06;;;28.67;31.38
61528;BME280;47395;42.032;-8.634;2023-04-09T08:03:52;101407.47;;;28.09;30.66
61528;BME280;47395;42.032;-8.634;2023-04-09T08:06:34;101420.44;;;28.22;31.34
61528;BME280;47395;42.032;-8.634;2023-04-09T08:11:12;101394.38;;;29.31;29.79
61528;BME280;47395;42.032;-8.634;2023-04-09T08:13:35;101407.56;;;30.03;28.72
61528;BME280;47395;42.032;-8.634;2023-04-09T08:16:04;101402.94;;;30.70;28.27
61528;BME280;47395;42.032;-8.634;2023-04-09T08:18:11;101402.78;;;30.94;26.15
61528;BME280;47395;42.032;-8.634;2023-04-09T08:20:36;101418.13;;;31.81;26.71
61528;BME280;47395;42.032;-8.634;2023-04-09T08:23:03;101412.72;;;32.23;25.49
61528;BME280;47395;42.032;-8.634;2023-04-09T08:25:16;101436.16;;;32.66;25.49
61528;BME280;47395;42.032;-8.634;2023-04-09T08:27:40;101432.13;;;32.06;25.31
61528;BME280;47395;42.032;-8.634;2023-04-09T08:29:44;101427.88;;;32.39;24.21
61528;BME280;47395;42.032;-8.634;2023-04-09T08:32:04;101448.13;;;32.58;24.80
61528;BME280;47395;42.032;-8.634;2023-04-09T08:34:17;101442.78;;;32.43;24.97
61528;BME280;47395;42.032;-8.634;2023-04-09T08:36:24;101463.50;;;32.86;24.59
61528;BME280;47395;42.032;-8.634;2023-04-09T08:38:36;101470.00;;;32.29;25.16
61528;BME280;47395;42.032;-8.634;2023-04-09T08:43:25;101466.78;;;31.84;27.59
61528;BME280;47395;42.032;-8.634;2023-04-09T08:45:38;101455.44;;;31.51;25.87
61528;BME280;47395;42.032;-8.634;2023-04-09T08:47:54;101469.16;;;29.72;28.26
61528;BME280;47395;42.032;-8.634;2023-04-09T08:50:16;101482.03;;;31.06;27.00
61528;BME280;47395;42.032;-8.634;2023-04-09T08:54:41;101465.28;;;30.20;27.98
61528;BME280;47395;42.032;-8.634;2023-04-09T08:57:03;101461.59;;;30.95;27.57
61528;BME280;47395;42.032;-8.634;2023-04-09T08:59:27;101471.13;;;30.69;27.65
61528;BME280;47395;42.032;-8.634;2023-04-09T09:02:11;101465.16;;;29.83;28.65
61528;BME280;47395;42.032;-8.634;2023-04-09T09:04:26;101461.50;;;29.76;28.78
61528;BME280;47395;42.032;-8.634;2023-04-09T09:12:03;101463.72;;;32.36;25.10
61528;BME280;47395;42.032;-8.634;2023-04-09T09:21:53;101491.53;;;33.36;24.55
61528;BME280;47395;42.032;-8.634;2023-04-09T09:24:26;101498.44;;;33.92;23.92
61528;BME280;47395;42.032;-8.634;2023-04-09T09:26:46;101492.06;;;32.97;24.68
61528;BME280;47395;42.032;-8.634;2023-04-09T09:28:48;101477.63;;;32.48;25.62
61528;BME280;47395;42.032;-8.634;2023-04-09T09:31:54;101485.94;;;30.81;27.93
61528;BME280;47395;42.032;-8.634;2023-04-09T09:34:25;101489.06;;;31.65;27.67
61528;BME280;47395;42.032;-8.634;2023-04-09T09:39:00;101489.50;;;31.69;27.06
61528;BME280;47395;42.032;-8.634;2023-04-09T09:41:20;101490.25;;;33.04;25.84
61528;BME280;47395;42.032;-8.634;2023-04-09T09:43:39;101501.66;;;32.73;26.18
61528;BME280;47395;42.032;-8.634;2023-04-09T09:46:04;101503.59;;;32.86;25.91
61528;BME280;47395;42.032;-8.634;2023-04-09T09:48:29;101492.16;;;33.78;24.72
61528;BME280;47395;42.032;-8.634;2023-04-09T09:50:54;101511.16;;;32.90;25.59
61528;BME280;47395;42.032;-8.634;2023-04-09T09:56:13;101511.88;;;35.12;23.47
61528;BME280;47395;42.032;-8.634;2023-04-09T09:59:00;101507.88;;;35.15;24.06
61528;BME280;47395;42.032;-8.634;2023-04-09T10:01:21;101503.78;;;36.01;22.70
61528;BME280;47395;42.032;-8.634;2023-04-09T10:10:41;101524.59;;;34.47;23.70
61528;BME280;47395;42.032;-8.634;2023-04-09T10:13:08;101527.69;;;35.42;23.04
61528;BME280;47395;42.032;-8.634;2023-04-09T10:18:18;101521.81;;;35.07;23.73
61528;BME280;47395;42.032;-8.634;2023-04-09T10:20:55;101522.84;;;37.13;20.81
61528;BME280;47395;42.032;-8.634;2023-04-09T10:23:20;101522.97;;;34.92;24.02
61528;BME280;47395;42.032;-8.634;2023-04-09T10:26:10;101529.53;;;36.56;21.48
61528;BME280;47395;42.032;-8.634;2023-04-09T10:31:47;101508.50;;;33.98;23.14
61528;BME280;47395;42.032;-8.634;2023-04-09T10:36:11;101509.41;;;33.58;24.54
61528;BME280;47395;42.032;-8.634;2023-04-09T10:40:55;101517.53;;;34.19;24.81
61528;BME280;47395;42.032;-8.634;2023-04-09T10:43:08;101514.50;;;35.58;23.28
61528;BME280;47395;42.032;-8.634;2023-04-09T10:45:14;101511.03;;;33.05;25.63
61528;BME280;47395;42.032;-8.634;2023-04-09T10:47:37;101508.25;;;34.86;24.04
61528;BME280;47395;42.032;-8.634;2023-04-09T10:49:50;101525.47;;;36.02;21.77
61528;BME280;47395;42.032;-8.634;2023-04-09T10:52:09;101511.44;;;35.48;22.81
61528;BME280;47395;42.032;-8.634;2023-04-09T10:54:37;101507.53;;;33.66;24.13
61528;BME280;47395;42.032;-8.634;2023-04-09T10:59:50;101508.41;;;36.75;21.49
61528;BME280;47395;42.032;-8.634;2023-04-09T11:01:55;101500.31;;;36.80;21.46
61528;BME280;47395;42.032;-8.634;2023-04-09T11:04:22;101498.88;;;33.49;23.91
61528;BME280;47395;42.032;-8.634;2023-04-09T11:06:38;101492.13;;;34.19;24.07
61528;BME280;47395;42.032;-8.634;2023-04-09T11:09:00;101498.00;;;34.75;23.24
61528;BME280;47395;42.032;-8.634;2023-04-09T11:12:00;101509.44;;;36.06;21.62
61528;BME280;47395;42.032;-8.634;2023-04-09T11:14:09;101519.34;;;36.94;21.00
61528;BME280;47395;42.032;-8.634;2023-04-09T11:16:53;101511.00;;;35.19;22.88
61528;BME280;47395;42.032;-8.634;2023-04-09T11:19:09;101490.91;;;35.57;21.44
61528;BME280;47395;42.032;-8.634;2023-04-09T11:21:33;101502.06;;;34.52;21.81
61528;BME280;47395;42.032;-8.634;2023-04-09T11:23:37;101490.69;;;34.55;21.48
61528;BME280;47395;42.032;-8.634;2023-04-09T11:25:49;101498.88;;;35.65;20.98
61528;BME280;47395;42.032;-8.634;2023-04-09T11:32:37;101497.09;;;35.20;23.36
61528;BME280;47395;42.032;-8.634;2023-04-09T11:34:41;101485.19;;;35.33;22.33
61528;BME280;47395;42.032;-8.634;2023-04-09T11:36:54;101493.50;;;34.42;22.90
61528;BME280;47395;42.032;-8.634;2023-04-09T11:41:00;101492.16;;;33.44;24.08
61528;BME280;47395;42.032;-8.634;2023-04-09T11:43:28;101499.09;;;33.74;24.05
61528;BME280;47395;42.032;-8.634;2023-04-09T11:45:34;101473.44;;;34.55;23.73
61528;BME280;47395;42.032;-8.634;2023-04-09T11:53:21;101480.81;;;33.75;24.33
61528;BME280;47395;42.032;-8.634;2023-04-09T11:55:36;101469.81;;;32.87;25.65
61528;BME280;47395;42.032;-8.634;2023-04-09T11:58:00;101474.84;;;34.18;25.70
61528;BME280;47395;42.032;-8.634;2023-04-09T12:00:17;101459.81;;;33.28;25.93
61528;BME280;47395;42.032;-8.634;2023-04-09T12:05:28;101464.75;;;32.28;26.03
61528;BME280;47395;42.032;-8.634;2023-04-09T12:07:47;101454.75;;;33.18;26.76
61528;BME280;47395;42.032;-8.634;2023-04-09T12:09:56;101469.41;;;34.05;26.76
61528;BME280;47395;42.032;-8.634;2023-04-09T12:12:24;101463.56;;;33.54;27.15
61528;BME280;47395;42.032;-8.634;2023-04-09T12:16:55;101480.19;;;33.79;26.07
61528;BME280;47395;42.032;-8.634;2023-04-09T12:19:17;101468.13;;;34.07;23.99
61528;BME280;47395;42.032;-8.634;2023-04-09T12:21:54;101471.19;;;34.38;22.84
61528;BME280;47395;42.032;-8.634;2023-04-09T12:26:22;101453.50;;;33.75;21.40
61528;BME280;47395;42.032;-8.634;2023-04-09T12:30:52;101461.03;;;33.05;20.35
61528;BME280;47395;42.032;-8.634;2023-04-09T12:35:55;101452.66;;;31.45;17.99
61528;BME280;47395;42.032;-8.634;2023-04-09T12:38:14;101452.69;;;31.80;16.36
61528;BME280;47395;42.032;-8.634;2023-04-09T12:40:30;101448.81;;;31.89;16.56
61528;BME280;47395;42.032;-8.634;2023-04-09T12:42:46;101450.22;;;32.21;15.40
61528;BME280;47395;42.032;-8.634;2023-04-09T12:44:52;101459.78;;;32.03;16.59
61528;BME280;47395;42.032;-8.634;2023-04-09T12:48:57;101459.16;;;31.44;17.63
61528;BME280;47395;42.032;-8.634;2023-04-09T12:51:19;101466.91;;;31.97;18.29
61528;BME280;47395;42.032;-8.634;2023-04-09T12:53:23;101470.94;;;31.07;19.62
61528;BME280;47395;42.032;-8.634;2023-04-09T12:55:32;101452.94;;;31.57;20.68
61528;BME280;47395;42.032;-8.634;2023-04-09T12:57:33;101468.16;;;31.00;20.54
61528;BME280;47395;42.032;-8.634;2023-04-09T12:59:42;101455.00;;;31.04;20.73
61528;BME280;47395;42.032;-8.634;2023-04-09T13:01:59;101456.59;;;30.77;21.17